sensor_id;sensor_type;location;lat;lon;timestamp;temperature;humidity
7325;DHT22;3703;48.016;7.802;2023-06-10T00:00:43;22.10;1.00
7325;DHT22;3703;48.016;7.802;2023-06-10T00:03:11;22.10;1.00
7325;DHT22;3703;48.016;7.802;2023-06-10T00:05:40;22.20;1.00
7325;DHT22;3703;48.016;7.802;2023-06-10T00:08:09;22.40;63.90
7325;DHT22;3703;48.016;7.802;2023-06-10T00:10:37;22.60;1.00
7325;DHT22;3703;48.016;7.802;2023-06-10T00:13:06;22.90;1.00
7325;DHT22;3703;48.016;7.802;2023-06-10T00:15:38;21.00;1.00
7325;DHT22;3703;48.016;7.802;2023-06-10T00:18:06;23.10;1.00
7325;DHT22;3703;48.016;7.802;2023-06-10T00:20:35;23.40;99.90
7325;DHT22;3703;48.016;7.802;2023-06-10T00:23:05;23.20;24.00
7325;DHT22;3703;48.016;7.802;2023-06-10T00:25:36;23.60;1.00
7325;DHT22;3703;48.016;7.802;2023-06-10T00:28:09;25.40;1.00
7325;DHT22;3703;48.016;7.802;2023-06-10T00:30:41;23.60;16.20
7325;DHT22;3703;48.016;7.802;2023-06-10T00:33:23;23.50;1.00
7325;DHT22;3703;48.016;7.802;2023-06-10T00:35:58;23.70;1.00
7325;DHT22;3703;48.016;7.802;2023-06-10T00:38:27;23.70;99.90
7325;DHT22;3703;48.016;7.802;2023-06-10T00:41:02;23.90;99.90
7325;DHT22;3703;48.016;7.802;2023-06-10T00:43:52;23.80;1.00
7325;DHT22;3703;48.016;7.802;2023-06-10T00:46:27;23.60;99.90
7325;DHT22;3703;48.016;7.802;2023-06-10T00:49:06;23.60;86.40
7325;DHT22;3703;48.016;7.802;2023-06-10T00:51:37;23.40;99.90
7325;DHT22;3703;48.016;7.802;2023-06-10T00:54:11;23.40;1.00
7325;DHT22;3703;48.016;7.802;2023-06-10T00:56:40;23.70;1.00
7325;DHT22;3703;48.016;7.802;2023-06-10T00:59:39;23.40;1.00
7325;DHT22;3703;48.016;7.802;2023-06-10T01:06:54;23.00;99.90
7325;DHT22;3703;48.016;7.802;2023-06-10T01:10:32;23.40;99.90
7325;DHT22;3703;48.016;7.802;2023-06-10T01:13:38;23.40;1.00
7325;DHT22;3703;48.016;7.802;2023-06-10T01:17:11;22.70;99.90
7325;DHT22;3703;48.016;7.802;2023-06-10T01:20:00;22.60;99.90
7325;DHT22;3703;48.016;7.802;2023-06-10T01:22:39;23.00;99.90
7325;DHT22;3703;48.016;7.802;2023-06-10T01:25:07;22.60;41.10
7325;DHT22;3703;48.016;7.802;2023-06-10T01:27:39;22.60;63.10
7325;DHT22;3703;48.016;7.802;2023-06-10T01:30:12;22.60;99.90
7325;DHT22;3703;48.016;7.802;2023-06-10T01:32:45;22.80;99.90
7325;DHT22;3703;48.016;7.802;2023-06-10T01:35:15;22.60;1.00
7325;DHT22;3703;48.016;7.802;2023-06-10T01:37:46;22.70;1.00
7325;DHT22;3703;48.016;7.802;2023-06-10T01:40:16;22.40;99.90
7325;DHT22;3703;48.016;7.802;2023-06-10T01:42:48;22.30;99.90
7325;DHT22;3703;48.016;7.802;2023-06-10T01:45:38;22.10;99.90
7325;DHT22;3703;48.016;7.802;2023-06-10T01:48:16;23.20;99.90
7325;DHT22;3703;48.016;7.802;2023-06-10T01:50:44;21.90;1.00
7325;DHT22;3703;48.016;7.802;2023-06-10T01:53:13;22.00;99.90
7325;DHT22;3703;48.016;7.802;2023-06-10T01:55:40;21.40;99.90
7325;DHT22;3703;48.016;7.802;2023-06-10T01:58:08;22.00;1.00
7325;DHT22;3703;48.016;7.802;2023-06-10T02:00:36;21.80;99.90
7325;DHT22;3703;48.016;7.802;2023-06-10T02:03:05;21.80;99.90
7325;DHT22;3703;48.016;7.802;2023-06-10T02:05:33;21.90;99.90
7325;DHT22;3703;48.016;7.802;2023-06-10T02:08:19;21.60;1.00
7325;DHT22;3703;48.016;7.802;2023-06-10T02:14:47;21.60;99.90
7325;DHT22;3703;48.016;7.802;2023-06-10T02:18:02;21.70;1.00
7325;DHT22;3703;48.016;7.802;2023-06-10T02:21:13;21.30;1.00
7325;DHT22;3703;48.016;7.802;2023-06-10T02:27:59;21.10;1.00
7325;DHT22;3703;48.016;7.802;2023-06-10T02:31:05;21.10;1.00
7325;DHT22;3703;48.016;7.802;2023-06-10T02:34:49;21.10;1.00
7325;DHT22;3703;48.016;7.802;2023-06-10T02:38:17;19.90;1.00
7325;DHT22;3703;48.016;7.802;2023-06-10T02:41:13;21.00;49.90
7325;DHT22;3703;48.016;7.802;2023-06-10T02:44:09;21.00;99.90
7325;DHT22;3703;48.016;7.802;2023-06-10T02:47:21;21.40;99.90
7325;DHT22;3703;48.016;7.802;2023-06-10T02:55:20;20.90;99.90
7325;DHT22;3703;48.016;7.802;2023-06-10T03:03:12;21.20;99.90
7325;DHT22;3703;48.016;7.802;2023-06-10T03:06:57;21.00;99.90
7325;DHT22;3703;48.016;7.802;2023-06-10T03:13:54;20.60;99.90
7325;DHT22;3703;48.016;7.802;2023-06-10T03:31:26;20.40;99.90
7325;DHT22;3703;48.016;7.802;2023-06-10T03:34:22;20.20;1.00
7325;DHT22;3703;48.016;7.802;2023-06-10T03:37:40;20.20;1.00
7325;DHT22;3703;48.016;7.802;2023-06-10T03:44:56;20.00;99.90
7325;DHT22;3703;48.016;7.802;2023-06-10T03:47:47;19.90;1.00
7325;DHT22;3703;48.016;7.802;2023-06-10T03:51:09;20.40;1.00
7325;DHT22;3703;48.016;7.802;2023-06-10T03:53:58;20.10;1.00
7325;DHT22;3703;48.016;7.802;2023-06-10T03:57:09;20.10;1.00
7325;DHT22;3703;48.016;7.802;2023-06-10T03:59:51;20.10;1.00
7325;DHT22;3703;48.016;7.802;2023-06-10T04:05:00;20.10;99.90
7325;DHT22;3703;48.016;7.802;2023-06-10T04:07:32;20.20;99.90
7325;DHT22;3703;48.016;7.802;2023-06-10T04:10:04;18.00;99.90
7325;DHT22;3703;48.016;7.802;2023-06-10T04:12:48;20.20;99.90
7325;DHT22;3703;48.016;7.802;2023-06-10T04:15:23;20.30;99.90
7325;DHT22;3703;48.016;7.802;2023-06-10T04:17:52;20.50;1.00
7325;DHT22;3703;48.016;7.802;2023-06-10T04:20:28;19.80;8.00
7325;DHT22;3703;48.016;7.802;2023-06-10T04:22:56;19.80;99.10
7325;DHT22;3703;48.016;7.802;2023-06-10T04:25:25;20.10;99.90
7325;DHT22;3703;48.016;7.802;2023-06-10T04:27:54;23.60;1.00
7325;DHT22;3703;48.016;7.802;2023-06-10T04:30:23;20.70;1.00
7325;DHT22;3703;48.016;7.802;2023-06-10T04:32:55;20.10;99.90
7325;DHT22;3703;48.016;7.802;2023-06-10T04:35:27;20.30;99.90
7325;DHT22;3703;48.016;7.802;2023-06-10T04:40:29;19.60;1.00
7325;DHT22;3703;48.016;7.802;2023-06-10T04:42:57;20.50;99.90
7325;DHT22;3703;48.016;7.802;2023-06-10T04:45:27;17.90;99.90
7325;DHT22;3703;48.016;7.802;2023-06-10T04:52:55;20.70;99.90
7325;DHT22;3703;48.016;7.802;2023-06-10T05:19:12;20.90;99.90
7325;DHT22;3703;48.016;7.802;2023-06-10T05:21:52;21.00;99.90
7325;DHT22;3703;48.016;7.802;2023-06-10T05:34:30;19.40;99.90
7325;DHT22;3703;48.016;7.802;2023-06-10T05:37:02;21.10;1.00
7325;DHT22;3703;48.016;7.802;2023-06-10T07:41:00;23.80;1.00
7325;DHT22;3703;48.016;7.802;2023-06-10T07:44:02;23.60;1.00
7325;DHT22;3703;48.016;7.802;2023-06-10T07:46:45;23.80;1.00
7325;DHT22;3703;48.016;7.802;2023-06-10T08:03:02;23.60;1.00
7325;DHT22;3703;48.016;7.802;2023-06-10T08:09:12;23.90;1.00
7325;DHT22;3703;48.016;7.802;2023-06-10T08:12:00;24.20;1.00
7325;DHT22;3703;48.016;7.802;2023-06-10T08:18:24;23.60;11.90
7325;DHT22;3703;48.016;7.802;2023-06-10T08:20:57;24.70;99.90
7325;DHT22;3703;48.016;7.802;2023-06-10T08:23:29;22.60;24.00
7325;DHT22;3703;48.016;7.802;2023-06-10T08:26:08;22.80;1.00
7325;DHT22;3703;48.016;7.802;2023-06-10T08:32:24;24.90;99.90
7325;DHT22;3703;48.016;7.802;2023-06-10T08:35:11;24.10;99.90
7325;DHT22;3703;48.016;7.802;2023-06-10T08:37:41;24.00;1.00
7325;DHT22;3703;48.016;7.802;2023-06-10T08:40:27;23.80;99.90
7325;DHT22;3703;48.016;7.802;2023-06-10T08:43:02;24.30;99.90
7325;DHT22;3703;48.016;7.802;2023-06-10T08:45:40;24.50;1.00
7325;DHT22;3703;48.016;7.802;2023-06-10T08:48:12;24.70;1.00
7325;DHT22;3703;48.016;7.802;2023-06-10T08:50:41;24.80;99.90
7325;DHT22;3703;48.016;7.802;2023-06-10T08:53:33;25.00;1.00
7325;DHT22;3703;48.016;7.802;2023-06-10T08:56:05;25.50;65.40
7325;DHT22;3703;48.016;7.802;2023-06-10T08:58:47;25.70;99.90
7325;DHT22;3703;48.016;7.802;2023-06-10T09:01:38;25.40;99.90
7325;DHT22;3703;48.016;7.802;2023-06-10T09:04:45;25.10;99.90
7325;DHT22;3703;48.016;7.802;2023-06-10T09:07:23;25.70;99.90
7325;DHT22;3703;48.016;7.802;2023-06-10T09:14:48;25.70;1.00
7325;DHT22;3703;48.016;7.802;2023-06-10T09:17:29;26.00;1.00
7325;DHT22;3703;48.016;7.802;2023-06-10T09:21:10;24.80;1.00
7325;DHT22;3703;48.016;7.802;2023-06-10T09:32:08;25.90;1.00
7325;DHT22;3703;48.016;7.802;2023-06-10T09:55:07;26.70;1.00
7325;DHT22;3703;48.016;7.802;2023-06-10T09:58:02;27.20;1.00
7325;DHT22;3703;48.016;7.802;2023-06-10T10:03:33;27.70;1.00
7325;DHT22;3703;48.016;7.802;2023-06-10T10:06:21;27.60;1.00
7325;DHT22;3703;48.016;7.802;2023-06-10T10:13:15;27.00;53.10
7325;DHT22;3703;48.016;7.802;2023-06-10T10:15:59;27.60;1.00
7325;DHT22;3703;48.016;7.802;2023-06-10T10:18:49;27.60;1.00
7325;DHT22;3703;48.016;7.802;2023-06-10T10:24:55;28.00;1.00
7325;DHT22;3703;48.016;7.802;2023-06-10T10:27:27;27.90;1.00
7325;DHT22;3703;48.016;7.802;2023-06-10T10:30:16;28.40;1.00
7325;DHT22;3703;48.016;7.802;2023-06-10T10:33:19;28.50;99.90
7325;DHT22;3703;48.016;7.802;2023-06-10T10:35:59;28.60;99.90
7325;DHT22;3703;48.016;7.802;2023-06-10T10:38:28;28.80;99.90
7325;DHT22;3703;48.016;7.802;2023-06-10T10:41:28;28.70;99.90
7325;DHT22;3703;48.016;7.802;2023-06-10T10:44:23;28.50;1.00
7325;DHT22;3703;48.016;7.802;2023-06-10T10:58:07;28.30;1.00
7325;DHT22;3703;48.016;7.802;2023-06-10T11:00:49;28.70;1.00
7325;DHT22;3703;48.016;7.802;2023-06-10T11:06:44;29.20;1.00
7325;DHT22;3703;48.016;7.802;2023-06-10T11:14:36;29.40;1.00
7325;DHT22;3703;48.016;7.802;2023-06-10T11:17:27;29.00;99.90
7325;DHT22;3703;48.016;7.802;2023-06-10T11:20:45;29.20;99.90
7325;DHT22;3703;48.016;7.802;2023-06-10T11:23:34;29.90;99.90
7325;DHT22;3703;48.016;7.802;2023-06-10T11:26:49;30.20;99.90
7325;DHT22;3703;48.016;7.802;2023-06-10T11:29:20;29.90;99.90
7325;DHT22;3703;48.016;7.802;2023-06-10T11:31:57;29.80;99.90
7325;DHT22;3703;48.016;7.802;2023-06-10T11:34:38;29.60;99.90
7325;DHT22;3703;48.016;7.802;2023-06-10T11:37:57;28.80;99.90
7325;DHT22;3703;48.016;7.802;2023-06-10T11:40:51;29.70;99.90
7325;DHT22;3703;48.016;7.802;2023-06-10T11:43:39;30.00;99.90
7325;DHT22;3703;48.016;7.802;2023-06-10T11:46:10;30.10;99.90
7325;DHT22;3703;48.016;7.802;2023-06-10T11:49:05;30.20;96.50
7325;DHT22;3703;48.016;7.802;2023-06-10T11:51:50;30.40;68.70
7325;DHT22;3703;48.016;7.802;2023-06-10T11:55:10;30.30;99.90
7325;DHT22;3703;48.016;7.802;2023-06-10T12:00:36;30.10;90.00
7325;DHT22;3703;48.016;7.802;2023-06-10T12:03:24;30.10;15.80
7325;DHT22;3703;48.016;7.802;2023-06-10T12:06:07;30.60;15.90
7325;DHT22;3703;48.016;7.802;2023-06-10T12:08:41;30.10;1.00
7325;DHT22;3703;48.016;7.802;2023-06-10T12:11:29;30.60;27.60
7325;DHT22;3703;48.016;7.802;2023-06-10T12:14:09;30.50;1.00
7325;DHT22;3703;48.016;7.802;2023-06-10T12:16:37;31.10;12.00
7325;DHT22;3703;48.016;7.802;2023-06-10T12:19:37;30.30;1.00
7325;DHT22;3703;48.016;7.802;2023-06-10T12:22:24;31.30;1.00
7325;DHT22;3703;48.016;7.802;2023-06-10T12:25:26;31.70;1.00
7325;DHT22;3703;48.016;7.802;2023-06-10T12:27:56;32.10;1.00
7325;DHT22;3703;48.016;7.802;2023-06-10T12:30:35;30.90;1.00
7325;DHT22;3703;48.016;7.802;2023-06-10T12:33:08;31.20;1.00
7325;DHT22;3703;48.016;7.802;2023-06-10T12:35:48;31.10;1.00
7325;DHT22;3703;48.016;7.802;2023-06-10T12:38:25;31.30;1.00
7325;DHT22;3703;48.016;7.802;2023-06-10T12:41:03;31.40;1.00
7325;DHT22;3703;48.016;7.802;2023-06-10T12:43:31;31.00;1.00
7325;DHT22;3703;48.016;7.802;2023-06-10T12:46:18;31.30;1.00
7325;DHT22;3703;48.016;7.802;2023-06-10T12:49:27;30.80;1.00
7325;DHT22;3703;48.016;7.802;2023-06-10T12:52:15;31.00;1.00
7325;DHT22;3703;48.016;7.802;2023-06-10T12:58:53;32.20;1.00
7325;DHT22;3703;48.016;7.802;2023-06-10T13:01:24;30.20;1.00
7325;DHT22;3703;48.016;7.802;2023-06-10T13:03:52;30.10;1.00
7325;DHT22;3703;48.016;7.802;2023-06-10T13:06:26;30.10;1.00
7325;DHT22;3703;48.016;7.802;2023-06-10T13:09:00;30.30;1.00
7325;DHT22;3703;48.016;7.802;2023-06-10T13:11:36;30.40;1.00
7325;DHT22;3703;48.016;7.802;2023-06-10T13:14:07;30.50;1.00
7325;DHT22;3703;48.016;7.802;2023-06-10T13:16:35;30.60;1.00
7325;DHT22;3703;48.016;7.802;2023-06-10T13:19:05;30.20;1.00
7325;DHT22;3703;48.016;7.802;2023-06-10T13:21:49;30.00;1.00
7325;DHT22;3703;48.016;7.802;2023-06-10T13:25:57;29.30;1.00
7325;DHT22;3703;48.016;7.802;2023-06-10T13:28:08;28.80;1.00
7325;DHT22;3703;48.016;7.802;2023-06-10T13:33:26;28.80;1.00
7325;DHT22;3703;48.016;7.802;2023-06-10T13:35:54;29.20;1.00
7325;DHT22;3703;48.016;7.802;2023-06-10T13:38:22;29.10;1.00
7325;DHT22;3703;48.016;7.802;2023-06-10T13:40:49;28.40;99.90
7325;DHT22;3703;48.016;7.802;2023-06-10T13:43:18;27.90;1.00
7325;DHT22;3703;48.016;7.802;2023-06-10T13:45:45;28.10;99.90
7325;DHT22;3703;48.016;7.802;2023-06-10T13:48:12;28.10;99.90
7325;DHT22;3703;48.016;7.802;2023-06-10T13:50:40;28.20;99.90
7325;DHT22;3703;48.016;7.802;2023-06-10T13:53:11;28.30;1.00
7325;DHT22;3703;48.016;7.802;2023-06-10T13:55:38;28.70;1.00
7325;DHT22;3703;48.016;7.802;2023-06-10T13:58:05;29.10;1.00
7325;DHT22;3703;48.016;7.802;2023-06-10T14:00:34;28.80;99.90
7325;DHT22;3703;48.016;7.802;2023-06-10T14:03:01;29.00;1.00
7325;DHT22;3703;48.016;7.802;2023-06-10T14:05:29;29.30;99.90
7325;DHT22;3703;48.016;7.802;2023-06-10T14:07:58;29.30;99.90
7325;DHT22;3703;48.016;7.802;2023-06-10T14:10:26;29.30;1.00
7325;DHT22;3703;48.016;7.802;2023-06-10T14:12:53;29.30;1.00
7325;DHT22;3703;48.016;7.802;2023-06-10T14:15:20;29.30;1.00
7325;DHT22;3703;48.016;7.802;2023-06-10T14:17:50;29.60;1.00
7325;DHT22;3703;48.016;7.802;2023-06-10T14:20:18;29.90;1.00
7325;DHT22;3703;48.016;7.802;2023-06-10T14:22:46;30.50;1.00
7325;DHT22;3703;48.016;7.802;2023-06-10T14:25:13;31.10;99.90
7325;DHT22;3703;48.016;7.802;2023-06-10T14:27:40;30.80;99.90
7325;DHT22;3703;48.016;7.802;2023-06-10T14:30:08;31.30;99.90
7325;DHT22;3703;48.016;7.802;2023-06-10T14:32:35;31.60;99.90
7325;DHT22;3703;48.016;7.802;2023-06-10T14:35:05;31.90;81.30
7325;DHT22;3703;48.016;7.802;2023-06-10T14:37:32;31.90;29.80
7325;DHT22;3703;48.016;7.802;2023-06-10T14:39:59;31.90;12.60
7325;DHT22;3703;48.016;7.802;2023-06-10T14:42:27;31.90;1.00
7325;DHT22;3703;48.016;7.802;2023-06-10T14:44:54;31.50;42.30
7325;DHT22;3703;48.016;7.802;2023-06-10T14:47:22;31.60;99.90
7325;DHT22;3703;48.016;7.802;2023-06-10T14:49:49;31.60;99.90
7325;DHT22;3703;48.016;7.802;2023-06-10T14:52:18;31.70;94.50
7325;DHT22;3703;48.016;7.802;2023-06-10T14:54:45;31.30;91.30
7325;DHT22;3703;48.016;7.802;2023-06-10T14:57:12;31.40;94.30
7325;DHT22;3703;48.016;7.802;2023-06-10T14:59:40;31.30;78.00
7325;DHT22;3703;48.016;7.802;2023-06-10T15:02:07;31.40;1.00
7325;DHT22;3703;48.016;7.802;2023-06-10T15:04:34;31.30;19.50
7325;DHT22;3703;48.016;7.802;2023-06-10T15:07:01;31.40;51.40
7325;DHT22;3703;48.016;7.802;2023-06-10T15:09:30;31.40;28.30
7325;DHT22;3703;48.016;7.802;2023-06-10T15:11:57;31.40;1.00
7325;DHT22;3703;48.016;7.802;2023-06-10T15:14:25;31.40;1.00
7325;DHT22;3703;48.016;7.802;2023-06-10T15:16:53;31.30;1.00
7325;DHT22;3703;48.016;7.802;2023-06-10T15:19:21;31.00;1.00
7325;DHT22;3703;48.016;7.802;2023-06-10T15:21:48;30.80;1.00
7325;DHT22;3703;48.016;7.802;2023-06-10T15:24:15;31.10;1.00
7325;DHT22;3703;48.016;7.802;2023-06-10T15:26:44;31.40;1.00
7325;DHT22;3703;48.016;7.802;2023-06-10T15:29:11;31.40;1.00
7325;DHT22;3703;48.016;7.802;2023-06-10T15:31:39;31.40;1.00
7325;DHT22;3703;48.016;7.802;2023-06-10T15:34:06;31.30;1.00
7325;DHT22;3703;48.016;7.802;2023-06-10T15:36:34;31.40;1.00
7325;DHT22;3703;48.016;7.802;2023-06-10T15:39:04;31.60;1.00
7325;DHT22;3703;48.016;7.802;2023-06-10T15:41:32;31.60;1.00
7325;DHT22;3703;48.016;7.802;2023-06-10T15:44:01;31.60;1.00
7325;DHT22;3703;48.016;7.802;2023-06-10T15:46:31;31.40;1.00
7325;DHT22;3703;48.016;7.802;2023-06-10T15:49:00;31.30;1.00
7325;DHT22;3703;48.016;7.802;2023-06-10T15:51:27;31.40;1.00
7325;DHT22;3703;48.016;7.802;2023-06-10T15:53:55;31.30;1.00
7325;DHT22;3703;48.016;7.802;2023-06-10T15:56:22;31.20;1.00
7325;DHT22;3703;48.016;7.802;2023-06-10T15:58:51;31.10;1.00
7325;DHT22;3703;48.016;7.802;2023-06-10T16:01:20;31.10;1.00
7325;DHT22;3703;48.016;7.802;2023-06-10T16:03:47;31.30;1.00
7325;DHT22;3703;48.016;7.802;2023-06-10T16:06:14;31.30;1.00
7325;DHT22;3703;48.016;7.802;2023-06-10T16:08:42;31.40;1.00
7325;DHT22;3703;48.016;7.802;2023-06-10T16:11:09;31.20;1.00
7325;DHT22;3703;48.016;7.802;2023-06-10T16:13:37;31.00;1.00
7325;DHT22;3703;48.016;7.802;2023-06-10T16:16:06;30.90;1.00
7325;DHT22;3703;48.016;7.802;2023-06-10T16:18:35;30.90;1.00
7325;DHT22;3703;48.016;7.802;2023-06-10T16:21:03;30.70;1.00
7325;DHT22;3703;48.016;7.802;2023-06-10T16:23:31;30.80;1.00
7325;DHT22;3703;48.016;7.802;2023-06-10T16:25:58;31.10;1.00
7325;DHT22;3703;48.016;7.802;2023-06-10T16:28:25;30.90;1.00
7325;DHT22;3703;48.016;7.802;2023-06-10T16:30:52;30.90;1.00
7325;DHT22;3703;48.016;7.802;2023-06-10T16:33:20;31.10;1.00
7325;DHT22;3703;48.016;7.802;2023-06-10T16:35:48;31.20;1.00
7325;DHT22;3703;48.016;7.802;2023-06-10T16:38:16;31.10;1.00
7325;DHT22;3703;48.016;7.802;2023-06-10T16:40:43;31.10;1.00
7325;DHT22;3703;48.016;7.802;2023-06-10T16:43:10;31.00;1.00
7325;DHT22;3703;48.016;7.802;2023-06-10T16:45:38;31.10;1.00
7325;DHT22;3703;48.016;7.802;2023-06-10T16:48:05;31.00;1.00
7325;DHT22;3703;48.016;7.802;2023-06-10T16:50:32;30.90;1.00
7325;DHT22;3703;48.016;7.802;2023-06-10T16:53:01;30.90;1.00
7325;DHT22;3703;48.016;7.802;2023-06-10T16:55:28;30.70;1.00
7325;DHT22;3703;48.016;7.802;2023-06-10T16:57:55;30.70;1.00
7325;DHT22;3703;48.016;7.802;2023-06-10T17:00:23;30.60;1.00
7325;DHT22;3703;48.016;7.802;2023-06-10T17:02:50;30.50;1.00
7325;DHT22;3703;48.016;7.802;2023-06-10T17:05:17;30.60;1.00
7325;DHT22;3703;48.016;7.802;2023-06-10T17:07:45;30.60;1.00
7325;DHT22;3703;48.016;7.802;2023-06-10T17:10:17;30.60;1.00
7325;DHT22;3703;48.016;7.802;2023-06-10T17:12:44;30.70;1.00
7325;DHT22;3703;48.016;7.802;2023-06-10T17:15:12;30.80;1.00
7325;DHT22;3703;48.016;7.802;2023-06-10T17:17:39;30.80;1.00
7325;DHT22;3703;48.016;7.802;2023-06-10T17:20:07;30.80;1.00
7325;DHT22;3703;48.016;7.802;2023-06-10T17:22:35;30.90;1.00
7325;DHT22;3703;48.016;7.802;2023-06-10T17:25:03;30.80;1.00
7325;DHT22;3703;48.016;7.802;2023-06-10T17:27:33;30.80;1.00
7325;DHT22;3703;48.016;7.802;2023-06-10T17:30:00;30.90;1.00
7325;DHT22;3703;48.016;7.802;2023-06-10T17:32:27;30.60;1.00
7325;DHT22;3703;48.016;7.802;2023-06-10T17:34:55;30.90;1.00
7325;DHT22;3703;48.016;7.802;2023-06-10T17:37:22;30.80;1.00
7325;DHT22;3703;48.016;7.802;2023-06-10T17:39:49;30.60;1.00
7325;DHT22;3703;48.016;7.802;2023-06-10T17:42:16;30.60;1.00
7325;DHT22;3703;48.016;7.802;2023-06-10T17:44:45;30.50;1.00
7325;DHT22;3703;48.016;7.802;2023-06-10T17:47:13;30.60;1.00
7325;DHT22;3703;48.016;7.802;2023-06-10T17:49:40;30.50;1.00
7325;DHT22;3703;48.016;7.802;2023-06-10T17:52:08;30.70;1.00
7325;DHT22;3703;48.016;7.802;2023-06-10T17:54:35;30.60;1.00
7325;DHT22;3703;48.016;7.802;2023-06-10T17:57:03;30.60;1.00
7325;DHT22;3703;48.016;7.802;2023-06-10T17:59:30;30.70;1.00
7325;DHT22;3703;48.016;7.802;2023-06-10T18:02:00;30.70;1.00
7325;DHT22;3703;48.016;7.802;2023-06-10T18:04:27;30.50;1.00
7325;DHT22;3703;48.016;7.802;2023-06-10T18:06:54;30.60;1.00
7325;DHT22;3703;48.016;7.802;2023-06-10T18:09:22;30.70;1.00
7325;DHT22;3703;48.016;7.802;2023-06-10T18:11:51;30.60;1.00
7325;DHT22;3703;48.016;7.802;2023-06-10T18:14:18;30.40;1.00
7325;DHT22;3703;48.016;7.802;2023-06-10T18:16:46;30.30;1.00
7325;DHT22;3703;48.016;7.802;2023-06-10T18:19:14;30.40;1.00
7325;DHT22;3703;48.016;7.802;2023-06-10T18:21:42;30.50;1.00
7325;DHT22;3703;48.016;7.802;2023-06-10T18:24:09;30.50;1.00
7325;DHT22;3703;48.016;7.802;2023-06-10T18:26:36;30.40;1.00
7325;DHT22;3703;48.016;7.802;2023-06-10T18:29:04;30.30;1.00
7325;DHT22;3703;48.016;7.802;2023-06-10T18:31:31;30.20;1.00
7325;DHT22;3703;48.016;7.802;2023-06-10T18:33:58;30.10;1.00
7325;DHT22;3703;48.016;7.802;2023-06-10T18:36:28;29.70;1.00
7325;DHT22;3703;48.016;7.802;2023-06-10T18:38:55;29.40;1.00
7325;DHT22;3703;48.016;7.802;2023-06-10T18:41:23;29.40;1.00
7325;DHT22;3703;48.016;7.802;2023-06-10T18:43:50;29.10;1.00
7325;DHT22;3703;48.016;7.802;2023-06-10T18:46:18;29.40;3.40
7325;DHT22;3703;48.016;7.802;2023-06-10T18:48:45;29.50;18.80
7325;DHT22;3703;48.016;7.802;2023-06-10T18:51:15;29.70;32.60
7325;DHT22;3703;48.016;7.802;2023-06-10T18:53:43;29.60;34.60
7325;DHT22;3703;48.016;7.802;2023-06-10T18:56:11;29.50;68.80
7325;DHT22;3703;48.016;7.802;2023-06-10T18:58:39;29.50;95.70
7325;DHT22;3703;48.016;7.802;2023-06-10T19:01:09;29.20;91.90
7325;DHT22;3703;48.016;7.802;2023-06-10T19:03:36;29.10;99.90
7325;DHT22;3703;48.016;7.802;2023-06-10T19:06:04;28.60;99.90
7325;DHT22;3703;48.016;7.802;2023-06-10T19:08:32;28.40;99.90
7325;DHT22;3703;48.016;7.802;2023-06-10T19:11:01;28.10;99.90
7325;DHT22;3703;48.016;7.802;2023-06-10T19:13:29;27.90;99.90
7325;DHT22;3703;48.016;7.802;2023-06-10T19:15:56;27.70;99.90
7325;DHT22;3703;48.016;7.802;2023-06-10T19:18:24;27.80;99.90
7325;DHT22;3703;48.016;7.802;2023-06-10T19:20:51;27.90;99.90
7325;DHT22;3703;48.016;7.802;2023-06-10T19:23:19;28.10;99.90
7325;DHT22;3703;48.016;7.802;2023-06-10T19:25:47;28.10;99.90
7325;DHT22;3703;48.016;7.802;2023-06-10T19:28:17;28.00;99.90
7325;DHT22;3703;48.016;7.802;2023-06-10T19:30:45;28.00;99.90
7325;DHT22;3703;48.016;7.802;2023-06-10T19:33:12;28.00;99.90
7325;DHT22;3703;48.016;7.802;2023-06-10T19:35:40;27.70;99.90
7325;DHT22;3703;48.016;7.802;2023-06-10T19:38:08;27.70;99.90
7325;DHT22;3703;48.016;7.802;2023-06-10T19:40:35;27.50;99.90
7325;DHT22;3703;48.016;7.802;2023-06-10T19:43:02;27.50;99.90
7325;DHT22;3703;48.016;7.802;2023-06-10T19:45:31;27.40;99.90
7325;DHT22;3703;48.016;7.802;2023-06-10T19:47:58;27.20;99.90
7325;DHT22;3703;48.016;7.802;2023-06-10T19:50:26;27.20;99.90
7325;DHT22;3703;48.016;7.802;2023-06-10T19:52:54;26.90;99.90
7325;DHT22;3703;48.016;7.802;2023-06-10T19:55:22;26.90;99.90
7325;DHT22;3703;48.016;7.802;2023-06-10T19:57:49;26.80;99.90
7325;DHT22;3703;48.016;7.802;2023-06-10T20:00:20;26.50;99.90
7325;DHT22;3703;48.016;7.802;2023-06-10T20:02:49;26.50;99.90
7325;DHT22;3703;48.016;7.802;2023-06-10T20:05:17;26.70;99.90
7325;DHT22;3703;48.016;7.802;2023-06-10T20:07:45;26.80;99.90
7325;DHT22;3703;48.016;7.802;2023-06-10T20:10:13;27.00;99.90
7325;DHT22;3703;48.016;7.802;2023-06-10T20:12:41;26.90;99.90
7325;DHT22;3703;48.016;7.802;2023-06-10T20:15:09;27.00;99.90
7325;DHT22;3703;48.016;7.802;2023-06-10T20:17:36;27.20;99.90
7325;DHT22;3703;48.016;7.802;2023-06-10T20:20:06;27.10;99.90
7325;DHT22;3703;48.016;7.802;2023-06-10T20:22:34;27.20;99.90
7325;DHT22;3703;48.016;7.802;2023-06-10T20:25:01;27.20;99.90
7325;DHT22;3703;48.016;7.802;2023-06-10T20:27:28;27.10;99.90
7325;DHT22;3703;48.016;7.802;2023-06-10T20:29:55;27.00;99.90
7325;DHT22;3703;48.016;7.802;2023-06-10T20:32:22;27.00;99.90
7325;DHT22;3703;48.016;7.802;2023-06-10T20:34:50;26.80;99.90
7325;DHT22;3703;48.016;7.802;2023-06-10T20:37:19;26.90;99.90
7325;DHT22;3703;48.016;7.802;2023-06-10T20:39:46;26.90;99.90
7325;DHT22;3703;48.016;7.802;2023-06-10T20:42:13;26.70;99.90
7325;DHT22;3703;48.016;7.802;2023-06-10T20:44:41;26.80;99.90
7325;DHT22;3703;48.016;7.802;2023-06-10T20:47:08;26.90;99.90
7325;DHT22;3703;48.016;7.802;2023-06-10T20:49:36;26.90;99.90
7325;DHT22;3703;48.016;7.802;2023-06-10T20:52:04;26.90;99.90
7325;DHT22;3703;48.016;7.802;2023-06-10T20:54:33;26.80;99.90
7325;DHT22;3703;48.016;7.802;2023-06-10T20:57:00;26.90;99.90
7325;DHT22;3703;48.016;7.802;2023-06-10T20:59:27;27.00;99.90
7325;DHT22;3703;48.016;7.802;2023-06-10T21:01:55;26.90;99.90
7325;DHT22;3703;48.016;7.802;2023-06-10T21:04:22;26.80;99.90
7325;DHT22;3703;48.016;7.802;2023-06-10T21:06:49;26.90;99.90
7325;DHT22;3703;48.016;7.802;2023-06-10T21:09:16;26.70;99.90
7325;DHT22;3703;48.016;7.802;2023-06-10T21:11:46;26.80;99.90
7325;DHT22;3703;48.016;7.802;2023-06-10T21:14:13;26.70;99.90
7325;DHT22;3703;48.016;7.802;2023-06-10T21:16:40;26.70;99.90
7325;DHT22;3703;48.016;7.802;2023-06-10T21:19:07;26.70;99.90
7325;DHT22;3703;48.016;7.802;2023-06-10T21:21:35;26.70;99.90
7325;DHT22;3703;48.016;7.802;2023-06-10T21:24:02;26.70;99.90
7325;DHT22;3703;48.016;7.802;2023-06-10T21:26:30;26.60;99.90
7325;DHT22;3703;48.016;7.802;2023-06-10T21:29:01;26.50;99.90
7325;DHT22;3703;48.016;7.802;2023-06-10T21:31:29;26.50;99.90
7325;DHT22;3703;48.016;7.802;2023-06-10T21:33:57;26.40;99.90
7325;DHT22;3703;48.016;7.802;2023-06-10T21:36:24;26.40;99.90
7325;DHT22;3703;48.016;7.802;2023-06-10T21:38:51;26.50;99.90
7325;DHT22;3703;48.016;7.802;2023-06-10T21:41:18;26.50;99.90
7325;DHT22;3703;48.016;7.802;2023-06-10T21:43:47;26.50;99.90
7325;DHT22;3703;48.016;7.802;2023-06-10T21:46:16;26.40;99.90
7325;DHT22;3703;48.016;7.802;2023-06-10T21:48:43;26.40;99.90
7325;DHT22;3703;48.016;7.802;2023-06-10T21:51:10;26.30;99.90
7325;DHT22;3703;48.016;7.802;2023-06-10T21:53:37;26.30;99.90
7325;DHT22;3703;48.016;7.802;2023-06-10T21:56:04;26.30;99.90
7325;DHT22;3703;48.016;7.802;2023-06-10T21:58:32;26.20;99.90
7325;DHT22;3703;48.016;7.802;2023-06-10T22:00:59;26.20;99.90
7325;DHT22;3703;48.016;7.802;2023-06-10T22:03:28;26.00;1.00
7325;DHT22;3703;48.016;7.802;2023-06-10T22:05:55;26.00;1.00
7325;DHT22;3703;48.016;7.802;2023-06-10T22:08:26;25.90;1.00